West Falls, New York
Current Conditions -  °F | °C
As of 9:54 PM on Saturday 25 Oct 2014 (Local Time) from KBUF Reporting Station
Broken Clouds Broken Clouds  
Wind Chill: 58°   Ceiling: 8500
Heat Index: 58°   Visibility: 9mi
Dew Point: 49°   Wind: 21mph
Humidity: 72%   Direction: 290°WNW
Pressure: 29.61"   Gusts: 30mph
Location:  42.7°N, 78.68°W
Report Text: KBUF 260154Z 29018G26KT 9SM FEW049 SCT060 BKN085 14/09 A2961 RMK AO2 PK WND 28026/0153 LTG DSNT NE AND E SLP027 CB DSNT NE T01440094
Loading
Personal Weather Stations






























Interactive Weather Map
Tropical Storm Tracking
New forecast layout! Learn more

10-Day Weather Forecast

Advertisements
Track Severe Weather on mobile